sensor_id;sensor_type;location;lat;lon;timestamp;temperature;humidity
42949;DHT22;28587;46.794;23.594;2022-12-31T00:00:11;22.40;45.30
42949;DHT22;28587;46.794;23.594;2022-12-31T00:05:14;22.30;45.30
42949;DHT22;28587;46.794;23.594;2022-12-31T00:10:15;22.40;45.40
42949;DHT22;28587;46.794;23.594;2022-12-31T00:15:16;22.30;45.40
42949;DHT22;28587;46.794;23.594;2022-12-31T00:20:17;22.30;45.40
42949;DHT22;28587;46.794;23.594;2022-12-31T00:25:18;22.30;45.50
42949;DHT22;28587;46.794;23.594;2022-12-31T00:30:19;22.30;45.40
42949;DHT22;28587;46.794;23.594;2022-12-31T00:35:20;22.30;45.50
42949;DHT22;28587;46.794;23.594;2022-12-31T00:40:21;22.30;45.50
42949;DHT22;28587;46.794;23.594;2022-12-31T00:45:22;22.30;45.50
42949;DHT22;28587;46.794;23.594;2022-12-31T00:50:23;22.30;45.60
42949;DHT22;28587;46.794;23.594;2022-12-31T00:55:24;22.30;46.00
42949;DHT22;28587;46.794;23.594;2022-12-31T01:00:25;22.30;45.20
42949;DHT22;28587;46.794;23.594;2022-12-31T01:05:26;22.30;45.30
42949;DHT22;28587;46.794;23.594;2022-12-31T01:10:27;22.30;45.30
42949;DHT22;28587;46.794;23.594;2022-12-31T01:15:47;22.30;45.60
42949;DHT22;28587;46.794;23.594;2022-12-31T01:20:48;22.30;45.80
42949;DHT22;28587;46.794;23.594;2022-12-31T01:25:49;22.20;46.00
42949;DHT22;28587;46.794;23.594;2022-12-31T01:30:50;22.20;46.10
42949;DHT22;28587;46.794;23.594;2022-12-31T01:35:50;22.20;46.10
42949;DHT22;28587;46.794;23.594;2022-12-31T01:40:51;22.20;46.00
42949;DHT22;28587;46.794;23.594;2022-12-31T01:45:53;22.20;46.10
42949;DHT22;28587;46.794;23.594;2022-12-31T01:50:54;22.20;46.30
42949;DHT22;28587;46.794;23.594;2022-12-31T01:55:57;22.20;46.20
42949;DHT22;28587;46.794;23.594;2022-12-31T02:00:59;22.20;46.10
42949;DHT22;28587;46.794;23.594;2022-12-31T02:06:16;22.10;46.20
42949;DHT22;28587;46.794;23.594;2022-12-31T02:11:27;22.10;46.20
42949;DHT22;28587;46.794;23.594;2022-12-31T02:16:53;22.10;46.20
42949;DHT22;28587;46.794;23.594;2022-12-31T02:27:32;22.10;46.20
42949;DHT22;28587;46.794;23.594;2022-12-31T02:38:11;22.10;46.20
42949;DHT22;28587;46.794;23.594;2022-12-31T02:43:13;22.10;46.30
42949;DHT22;28587;46.794;23.594;2022-12-31T02:48:28;22.10;46.10
42949;DHT22;28587;46.794;23.594;2022-12-31T02:54:10;22.10;46.10
42949;DHT22;28587;46.794;23.594;2022-12-31T02:59:30;22.10;46.20
42949;DHT22;28587;46.794;23.594;2022-12-31T03:04:54;22.10;46.20
42949;DHT22;28587;46.794;23.594;2022-12-31T03:09:55;22.10;46.30
42949;DHT22;28587;46.794;23.594;2022-12-31T03:14:56;22.10;46.20
42949;DHT22;28587;46.794;23.594;2022-12-31T03:19:57;22.00;46.20
42949;DHT22;28587;46.794;23.594;2022-12-31T03:25:17;22.00;46.20
42949;DHT22;28587;46.794;23.594;2022-12-31T03:30:46;22.00;46.10
42949;DHT22;28587;46.794;23.594;2022-12-31T03:35:48;22.00;46.20
42949;DHT22;28587;46.794;23.594;2022-12-31T03:40:51;22.00;46.20
42949;DHT22;28587;46.794;23.594;2022-12-31T03:45:53;22.00;46.30
42949;DHT22;28587;46.794;23.594;2022-12-31T03:50:54;22.00;46.40
42949;DHT22;28587;46.794;23.594;2022-12-31T03:55:55;22.00;46.30
42949;DHT22;28587;46.794;23.594;2022-12-31T04:00:56;22.00;46.30
42949;DHT22;28587;46.794;23.594;2022-12-31T04:05:58;22.00;46.30
42949;DHT22;28587;46.794;23.594;2022-12-31T04:10:58;22.00;46.30
42949;DHT22;28587;46.794;23.594;2022-12-31T04:15:59;22.00;46.20
42949;DHT22;28587;46.794;23.594;2022-12-31T04:21:04;22.00;46.20
42949;DHT22;28587;46.794;23.594;2022-12-31T04:26:05;22.00;46.20
42949;DHT22;28587;46.794;23.594;2022-12-31T04:31:06;22.00;46.20
42949;DHT22;28587;46.794;23.594;2022-12-31T04:36:07;22.00;46.30
42949;DHT22;28587;46.794;23.594;2022-12-31T04:41:08;22.00;46.30
42949;DHT22;28587;46.794;23.594;2022-12-31T04:46:26;22.00;46.20
42949;DHT22;28587;46.794;23.594;2022-12-31T04:51:28;21.90;46.20
42949;DHT22;28587;46.794;23.594;2022-12-31T04:56:30;21.90;46.30
42949;DHT22;28587;46.794;23.594;2022-12-31T05:01:31;21.90;46.40
42949;DHT22;28587;46.794;23.594;2022-12-31T05:06:33;21.90;46.40
42949;DHT22;28587;46.794;23.594;2022-12-31T05:11:35;22.00;46.30
42949;DHT22;28587;46.794;23.594;2022-12-31T05:16:37;22.00;46.40
42949;DHT22;28587;46.794;23.594;2022-12-31T05:21:38;21.90;46.40
42949;DHT22;28587;46.794;23.594;2022-12-31T05:26:39;21.90;46.40
42949;DHT22;28587;46.794;23.594;2022-12-31T05:31:40;21.90;46.40
42949;DHT22;28587;46.794;23.594;2022-12-31T05:36:41;21.90;46.20
42949;DHT22;28587;46.794;23.594;2022-12-31T05:41:41;21.90;46.40
42949;DHT22;28587;46.794;23.594;2022-12-31T05:46:44;21.90;46.40
42949;DHT22;28587;46.794;23.594;2022-12-31T05:51:46;21.90;46.40
42949;DHT22;28587;46.794;23.594;2022-12-31T05:56:47;21.90;46.50
42949;DHT22;28587;46.794;23.594;2022-12-31T06:01:48;21.90;46.50
42949;DHT22;28587;46.794;23.594;2022-12-31T06:06:49;21.90;46.50
42949;DHT22;28587;46.794;23.594;2022-12-31T06:11:50;21.90;46.70
42949;DHT22;28587;46.794;23.594;2022-12-31T06:16:50;21.90;47.10
42949;DHT22;28587;46.794;23.594;2022-12-31T06:21:51;21.90;47.30
42949;DHT22;28587;46.794;23.594;2022-12-31T06:26:52;21.90;47.50
42949;DHT22;28587;46.794;23.594;2022-12-31T06:31:53;21.90;47.60
42949;DHT22;28587;46.794;23.594;2022-12-31T06:36:54;21.90;47.80
42949;DHT22;28587;46.794;23.594;2022-12-31T06:41:55;21.90;47.80
42949;DHT22;28587;46.794;23.594;2022-12-31T06:46:56;21.90;47.90
42949;DHT22;28587;46.794;23.594;2022-12-31T06:51:57;21.90;47.90
42949;DHT22;28587;46.794;23.594;2022-12-31T06:56:58;21.90;48.10
42949;DHT22;28587;46.794;23.594;2022-12-31T07:18:06;22.00;48.70
42949;DHT22;28587;46.794;23.594;2022-12-31T07:23:10;22.00;48.90
42949;DHT22;28587;46.794;23.594;2022-12-31T07:33:42;22.00;48.60
42949;DHT22;28587;46.794;23.594;2022-12-31T07:39:07;22.00;48.40
42949;DHT22;28587;46.794;23.594;2022-12-31T07:49:14;22.10;48.90
42949;DHT22;28587;46.794;23.594;2022-12-31T07:54:15;22.10;49.00
42949;DHT22;28587;46.794;23.594;2022-12-31T08:04:53;22.10;49.00
42949;DHT22;28587;46.794;23.594;2022-12-31T08:15:27;22.10;49.30
42949;DHT22;28587;46.794;23.594;2022-12-31T08:20:29;22.10;49.50
42949;DHT22;28587;46.794;23.594;2022-12-31T08:31:06;22.00;46.20
42949;DHT22;28587;46.794;23.594;2022-12-31T08:36:30;21.90;46.30
42949;DHT22;28587;46.794;23.594;2022-12-31T08:41:44;21.90;47.10
42949;DHT22;28587;46.794;23.594;2022-12-31T08:52:05;21.90;42.10
42949;DHT22;28587;46.794;23.594;2022-12-31T09:02:32;21.70;39.60
42949;DHT22;28587;46.794;23.594;2022-12-31T09:18:02;21.60;39.30
42949;DHT22;28587;46.794;23.594;2022-12-31T09:23:04;21.60;40.60
42949;DHT22;28587;46.794;23.594;2022-12-31T09:28:18;21.60;40.90
42949;DHT22;28587;46.794;23.594;2022-12-31T10:10:57;21.60;42.20
42949;DHT22;28587;46.794;23.594;2022-12-31T10:16:08;21.70;43.10
42949;DHT22;28587;46.794;23.594;2022-12-31T10:21:36;21.70;43.10
42949;DHT22;28587;46.794;23.594;2022-12-31T10:26:54;21.70;43.80
42949;DHT22;28587;46.794;23.594;2022-12-31T10:32:29;21.70;43.60
42949;DHT22;28587;46.794;23.594;2022-12-31T11:32:09;21.80;43.40
42949;DHT22;28587;46.794;23.594;2022-12-31T11:37:27;21.80;43.10
42949;DHT22;28587;46.794;23.594;2022-12-31T11:42:54;21.80;43.80
42949;DHT22;28587;46.794;23.594;2022-12-31T11:48:14;21.80;44.80
42949;DHT22;28587;46.794;23.594;2022-12-31T11:58:57;22.00;45.00
42949;DHT22;28587;46.794;23.594;2022-12-31T12:03:58;22.00;47.10
42949;DHT22;28587;46.794;23.594;2022-12-31T12:09:03;22.00;44.80
42949;DHT22;28587;46.794;23.594;2022-12-31T12:14:25;22.00;44.10
42949;DHT22;28587;46.794;23.594;2022-12-31T12:19:30;21.90;43.40
42949;DHT22;28587;46.794;23.594;2022-12-31T12:24:33;21.90;43.10
42949;DHT22;28587;46.794;23.594;2022-12-31T12:29:34;21.90;40.90
42949;DHT22;28587;46.794;23.594;2022-12-31T12:34:39;21.70;40.30
42949;DHT22;28587;46.794;23.594;2022-12-31T12:39:40;21.60;40.90
42949;DHT22;28587;46.794;23.594;2022-12-31T12:44:41;21.60;41.40
42949;DHT22;28587;46.794;23.594;2022-12-31T12:49:47;21.60;42.10
42949;DHT22;28587;46.794;23.594;2022-12-31T13:00:20;21.70;41.20
42949;DHT22;28587;46.794;23.594;2022-12-31T13:11:10;21.70;41.00
42949;DHT22;28587;46.794;23.594;2022-12-31T13:16:25;21.60;40.50
42949;DHT22;28587;46.794;23.594;2022-12-31T13:26:50;21.30;40.50
42949;DHT22;28587;46.794;23.594;2022-12-31T13:31:55;21.10;40.80
42949;DHT22;28587;46.794;23.594;2022-12-31T13:37:02;21.10;40.90
42949;DHT22;28587;46.794;23.594;2022-12-31T13:47:22;20.90;41.50
42949;DHT22;28587;46.794;23.594;2022-12-31T14:03:39;21.00;43.20
42949;DHT22;28587;46.794;23.594;2022-12-31T14:08:44;21.10;43.50
42949;DHT22;28587;46.794;23.594;2022-12-31T14:29:52;21.50;43.80
42949;DHT22;28587;46.794;23.594;2022-12-31T14:40:08;21.50;43.90
42949;DHT22;28587;46.794;23.594;2022-12-31T14:50:44;21.70;52.30
42949;DHT22;28587;46.794;23.594;2022-12-31T14:55:59;22.00;58.30
42949;DHT22;28587;46.794;23.594;2022-12-31T15:01:17;22.10;59.10
42949;DHT22;28587;46.794;23.594;2022-12-31T15:11:38;22.10;50.30
42949;DHT22;28587;46.794;23.594;2022-12-31T15:22:51;22.00;48.10
42949;DHT22;28587;46.794;23.594;2022-12-31T15:27:53;22.00;48.00
42949;DHT22;28587;46.794;23.594;2022-12-31T15:32:56;22.00;48.50
42949;DHT22;28587;46.794;23.594;2022-12-31T15:48:45;22.00;48.50
42949;DHT22;28587;46.794;23.594;2022-12-31T15:53:49;22.00;48.00
42949;DHT22;28587;46.794;23.594;2022-12-31T15:58:56;22.00;48.00
42949;DHT22;28587;46.794;23.594;2022-12-31T16:04:06;22.00;47.90
42949;DHT22;28587;46.794;23.594;2022-12-31T16:09:25;21.90;47.50
42949;DHT22;28587;46.794;23.594;2022-12-31T16:14:38;22.00;47.90
42949;DHT22;28587;46.794;23.594;2022-12-31T16:19:42;21.90;47.80
42949;DHT22;28587;46.794;23.594;2022-12-31T16:24:43;22.00;47.90
42949;DHT22;28587;46.794;23.594;2022-12-31T16:29:56;22.00;47.50
42949;DHT22;28587;46.794;23.594;2022-12-31T16:34:57;22.00;47.60
42949;DHT22;28587;46.794;23.594;2022-12-31T16:45:34;22.00;46.20
42949;DHT22;28587;46.794;23.594;2022-12-31T16:50:35;22.00;45.80
42949;DHT22;28587;46.794;23.594;2022-12-31T16:55:37;22.00;45.70
42949;DHT22;28587;46.794;23.594;2022-12-31T17:00:38;22.00;45.60
42949;DHT22;28587;46.794;23.594;2022-12-31T17:06:16;21.90;45.80
42949;DHT22;28587;46.794;23.594;2022-12-31T17:11:23;21.90;45.80
42949;DHT22;28587;46.794;23.594;2022-12-31T17:16:27;21.90;45.90
42949;DHT22;28587;46.794;23.594;2022-12-31T17:21:31;21.90;45.50
42949;DHT22;28587;46.794;23.594;2022-12-31T17:26:34;21.90;45.70
42949;DHT22;28587;46.794;23.594;2022-12-31T17:31:38;21.90;45.80
42949;DHT22;28587;46.794;23.594;2022-12-31T17:36:50;21.90;45.60
42949;DHT22;28587;46.794;23.594;2022-12-31T17:41:55;21.90;48.00
42949;DHT22;28587;46.794;23.594;2022-12-31T17:46:57;21.80;47.90
42949;DHT22;28587;46.794;23.594;2022-12-31T17:51:59;21.70;47.70
42949;DHT22;28587;46.794;23.594;2022-12-31T17:57:00;21.70;48.20
42949;DHT22;28587;46.794;23.594;2022-12-31T18:02:02;21.70;48.00
42949;DHT22;28587;46.794;23.594;2022-12-31T18:07:04;21.70;47.30
42949;DHT22;28587;46.794;23.594;2022-12-31T18:12:06;21.70;47.40
42949;DHT22;28587;46.794;23.594;2022-12-31T18:17:14;21.70;48.10
42949;DHT22;28587;46.794;23.594;2022-12-31T18:22:15;21.70;49.30
42949;DHT22;28587;46.794;23.594;2022-12-31T18:27:17;21.80;49.80
42949;DHT22;28587;46.794;23.594;2022-12-31T18:32:23;21.80;51.20
42949;DHT22;28587;46.794;23.594;2022-12-31T18:37:27;21.90;48.50
42949;DHT22;28587;46.794;23.594;2022-12-31T18:42:28;21.90;56.10
42949;DHT22;28587;46.794;23.594;2022-12-31T18:47:29;22.00;64.70
42949;DHT22;28587;46.794;23.594;2022-12-31T18:52:30;22.00;69.90
42949;DHT22;28587;46.794;23.594;2022-12-31T18:57:31;22.00;56.80
42949;DHT22;28587;46.794;23.594;2022-12-31T19:02:32;22.00;57.40
42949;DHT22;28587;46.794;23.594;2022-12-31T19:07:33;22.00;56.20
42949;DHT22;28587;46.794;23.594;2022-12-31T19:12:34;22.00;55.50
42949;DHT22;28587;46.794;23.594;2022-12-31T19:17:35;21.90;55.30
42949;DHT22;28587;46.794;23.594;2022-12-31T19:22:36;21.90;55.10
42949;DHT22;28587;46.794;23.594;2022-12-31T19:27:36;21.90;54.90
42949;DHT22;28587;46.794;23.594;2022-12-31T19:32:37;21.90;54.70
42949;DHT22;28587;46.794;23.594;2022-12-31T19:37:39;21.90;54.70
42949;DHT22;28587;46.794;23.594;2022-12-31T19:42:40;21.90;55.80
42949;DHT22;28587;46.794;23.594;2022-12-31T19:47:41;21.90;57.50
42949;DHT22;28587;46.794;23.594;2022-12-31T19:52:43;22.00;58.20
42949;DHT22;28587;46.794;23.594;2022-12-31T19:57:45;22.00;65.10
42949;DHT22;28587;46.794;23.594;2022-12-31T20:02:47;22.10;65.40
42949;DHT22;28587;46.794;23.594;2022-12-31T20:07:48;22.10;64.30
42949;DHT22;28587;46.794;23.594;2022-12-31T20:12:49;22.10;60.60
42949;DHT22;28587;46.794;23.594;2022-12-31T20:17:50;22.10;58.20
42949;DHT22;28587;46.794;23.594;2022-12-31T20:22:51;22.10;57.50
42949;DHT22;28587;46.794;23.594;2022-12-31T20:27:53;22.10;56.90
42949;DHT22;28587;46.794;23.594;2022-12-31T20:32:54;22.10;56.70
42949;DHT22;28587;46.794;23.594;2022-12-31T20:37:55;22.10;56.00
42949;DHT22;28587;46.794;23.594;2022-12-31T20:42:56;22.10;56.00
42949;DHT22;28587;46.794;23.594;2022-12-31T20:47:56;22.10;56.20
42949;DHT22;28587;46.794;23.594;2022-12-31T20:52:57;22.10;60.90
42949;DHT22;28587;46.794;23.594;2022-12-31T20:57:58;22.20;59.60
42949;DHT22;28587;46.794;23.594;2022-12-31T21:03:00;22.20;58.20
42949;DHT22;28587;46.794;23.594;2022-12-31T21:08:01;22.20;56.30
42949;DHT22;28587;46.794;23.594;2022-12-31T21:13:01;22.20;56.40
42949;DHT22;28587;46.794;23.594;2022-12-31T21:18:02;22.20;56.30
42949;DHT22;28587;46.794;23.594;2022-12-31T21:23:03;22.20;56.40
42949;DHT22;28587;46.794;23.594;2022-12-31T21:28:04;22.20;57.00
42949;DHT22;28587;46.794;23.594;2022-12-31T21:33:06;22.20;57.80
42949;DHT22;28587;46.794;23.594;2022-12-31T21:38:07;22.30;57.60
42949;DHT22;28587;46.794;23.594;2022-12-31T21:43:08;22.60;57.00
42949;DHT22;28587;46.794;23.594;2022-12-31T21:48:11;22.90;56.40
42949;DHT22;28587;46.794;23.594;2022-12-31T21:53:24;23.10;55.80
42949;DHT22;28587;46.794;23.594;2022-12-31T21:58:25;23.30;53.90
42949;DHT22;28587;46.794;23.594;2022-12-31T22:03:26;23.40;47.20
42949;DHT22;28587;46.794;23.594;2022-12-31T22:08:29;23.30;45.00
42949;DHT22;28587;46.794;23.594;2022-12-31T22:13:30;23.30;44.90
42949;DHT22;28587;46.794;23.594;2022-12-31T22:18:32;23.20;45.90
42949;DHT22;28587;46.794;23.594;2022-12-31T22:23:34;23.10;46.80
42949;DHT22;28587;46.794;23.594;2022-12-31T22:28:38;23.10;47.70
42949;DHT22;28587;46.794;23.594;2022-12-31T22:33:39;23.00;47.10
42949;DHT22;28587;46.794;23.594;2022-12-31T22:38:40;22.90;47.80
42949;DHT22;28587;46.794;23.594;2022-12-31T22:43:43;22.80;48.60
42949;DHT22;28587;46.794;23.594;2022-12-31T22:48:45;22.80;49.30
42949;DHT22;28587;46.794;23.594;2022-12-31T22:53:46;22.80;49.80
42949;DHT22;28587;46.794;23.594;2022-12-31T22:58:47;22.70;50.20
42949;DHT22;28587;46.794;23.594;2022-12-31T23:03:51;22.60;50.40
42949;DHT22;28587;46.794;23.594;2022-12-31T23:08:53;22.60;50.60
42949;DHT22;28587;46.794;23.594;2022-12-31T23:14:16;22.60;50.70
42949;DHT22;28587;46.794;23.594;2022-12-31T23:19:35;22.60;50.80
42949;DHT22;28587;46.794;23.594;2022-12-31T23:24:55;22.60;50.90
42949;DHT22;28587;46.794;23.594;2022-12-31T23:29:56;22.60;51.40
42949;DHT22;28587;46.794;23.594;2022-12-31T23:34:57;22.60;51.30
42949;DHT22;28587;46.794;23.594;2022-12-31T23:39:58;22.60;51.30
42949;DHT22;28587;46.794;23.594;2022-12-31T23:44:59;22.60;51.60
42949;DHT22;28587;46.794;23.594;2022-12-31T23:50:00;22.50;51.80
42949;DHT22;28587;46.794;23.594;2022-12-31T23:55:01;22.50;51.80
